sensor_id;sensor_type;location;lat;lon;timestamp;P1;durP1;ratioP1;P2;durP2;ratioP2
23404;SDS011;11875;49.356;2.718;2024-03-25T00:02:06;22.83;;;10.43;;
23404;SDS011;11875;49.356;2.718;2024-03-25T00:04:32;21.47;;;10.20;;
23404;SDS011;11875;49.356;2.718;2024-03-25T00:06:57;18.50;;;9.27;;
23404;SDS011;11875;49.356;2.718;2024-03-25T00:09:23;19.40;;;10.30;;
23404;SDS011;11875;49.356;2.718;2024-03-25T00:11:49;20.10;;;9.17;;
23404;SDS011;11875;49.356;2.718;2024-03-25T00:14:19;18.47;;;10.50;;
23404;SDS011;11875;49.356;2.718;2024-03-25T00:16:45;20.43;;;11.13;;
23404;SDS011;11875;49.356;2.718;2024-03-25T00:19:11;20.80;;;11.10;;
23404;SDS011;11875;49.356;2.718;2024-03-25T00:21:37;17.33;;;10.17;;
23404;SDS011;11875;49.356;2.718;2024-03-25T00:24:03;18.07;;;10.27;;
23404;SDS011;11875;49.356;2.718;2024-03-25T00:26:29;24.10;;;11.20;;
23404;SDS011;11875;49.356;2.718;2024-03-25T00:28:54;20.93;;;10.97;;
23404;SDS011;11875;49.356;2.718;2024-03-25T00:31:20;20.17;;;10.67;;
23404;SDS011;11875;49.356;2.718;2024-03-25T00:33:45;23.13;;;10.67;;
23404;SDS011;11875;49.356;2.718;2024-03-25T00:36:11;19.53;;;11.17;;
23404;SDS011;11875;49.356;2.718;2024-03-25T00:38:37;36.33;;;18.83;;
23404;SDS011;11875;49.356;2.718;2024-03-25T00:41:03;21.13;;;11.57;;
23404;SDS011;11875;49.356;2.718;2024-03-25T00:43:29;19.07;;;11.87;;
23404;SDS011;11875;49.356;2.718;2024-03-25T00:45:54;22.63;;;12.07;;
23404;SDS011;11875;49.356;2.718;2024-03-25T00:48:21;18.67;;;10.03;;
23404;SDS011;11875;49.356;2.718;2024-03-25T00:50:47;23.57;;;10.63;;
23404;SDS011;11875;49.356;2.718;2024-03-25T00:53:13;15.87;;;9.37;;
23404;SDS011;11875;49.356;2.718;2024-03-25T00:55:39;16.43;;;9.33;;
23404;SDS011;11875;49.356;2.718;2024-03-25T00:58:05;19.30;;;9.80;;
23404;SDS011;11875;49.356;2.718;2024-03-25T01:00:30;17.87;;;9.87;;
23404;SDS011;11875;49.356;2.718;2024-03-25T01:02:56;23.17;;;10.43;;
23404;SDS011;11875;49.356;2.718;2024-03-25T01:05:21;18.27;;;9.70;;
23404;SDS011;11875;49.356;2.718;2024-03-25T01:07:47;21.27;;;9.63;;
23404;SDS011;11875;49.356;2.718;2024-03-25T01:10:14;18.00;;;9.07;;
23404;SDS011;11875;49.356;2.718;2024-03-25T01:12:41;18.90;;;9.47;;
23404;SDS011;11875;49.356;2.718;2024-03-25T01:15:07;18.50;;;10.43;;
23404;SDS011;11875;49.356;2.718;2024-03-25T01:17:34;21.57;;;9.97;;
23404;SDS011;11875;49.356;2.718;2024-03-25T01:20:00;20.73;;;10.50;;
23404;SDS011;11875;49.356;2.718;2024-03-25T01:22:26;18.37;;;9.77;;
23404;SDS011;11875;49.356;2.718;2024-03-25T01:24:52;22.13;;;10.17;;
23404;SDS011;11875;49.356;2.718;2024-03-25T01:27:17;19.20;;;11.30;;
23404;SDS011;11875;49.356;2.718;2024-03-25T01:29:43;22.83;;;10.67;;
23404;SDS011;11875;49.356;2.718;2024-03-25T01:32:08;22.53;;;10.83;;
23404;SDS011;11875;49.356;2.718;2024-03-25T01:34:34;18.30;;;9.20;;
23404;SDS011;11875;49.356;2.718;2024-03-25T01:36:59;18.80;;;10.17;;
23404;SDS011;11875;49.356;2.718;2024-03-25T01:39:25;16.90;;;9.07;;
23404;SDS011;11875;49.356;2.718;2024-03-25T01:41:51;15.93;;;9.47;;
23404;SDS011;11875;49.356;2.718;2024-03-25T01:44:16;19.20;;;9.73;;
23404;SDS011;11875;49.356;2.718;2024-03-25T01:46:42;18.00;;;10.27;;
23404;SDS011;11875;49.356;2.718;2024-03-25T01:49:08;19.07;;;9.77;;
23404;SDS011;11875;49.356;2.718;2024-03-25T01:51:33;16.83;;;8.70;;
23404;SDS011;11875;49.356;2.718;2024-03-25T01:54:01;16.23;;;9.20;;
23404;SDS011;11875;49.356;2.718;2024-03-25T01:56:29;16.87;;;9.33;;
23404;SDS011;11875;49.356;2.718;2024-03-25T01:58:56;18.70;;;10.60;;
23404;SDS011;11875;49.356;2.718;2024-03-25T02:01:22;21.23;;;11.40;;
23404;SDS011;11875;49.356;2.718;2024-03-25T02:03:48;16.77;;;10.87;;
23404;SDS011;11875;49.356;2.718;2024-03-25T02:06:15;18.23;;;9.23;;
23404;SDS011;11875;49.356;2.718;2024-03-25T02:08:43;19.53;;;11.70;;
23404;SDS011;11875;49.356;2.718;2024-03-25T02:11:10;22.47;;;11.40;;
23404;SDS011;11875;49.356;2.718;2024-03-25T02:13:37;21.57;;;11.90;;
23404;SDS011;11875;49.356;2.718;2024-03-25T02:16:03;24.70;;;13.50;;
23404;SDS011;11875;49.356;2.718;2024-03-25T02:18:29;20.90;;;11.73;;
23404;SDS011;11875;49.356;2.718;2024-03-25T02:20:58;22.17;;;10.43;;
23404;SDS011;11875;49.356;2.718;2024-03-25T02:23:25;19.00;;;11.53;;
23404;SDS011;11875;49.356;2.718;2024-03-25T02:25:52;22.40;;;11.83;;
23404;SDS011;11875;49.356;2.718;2024-03-25T02:28:18;23.50;;;11.77;;
23404;SDS011;11875;49.356;2.718;2024-03-25T02:30:44;21.23;;;10.37;;
23404;SDS011;11875;49.356;2.718;2024-03-25T02:33:10;20.37;;;10.47;;
23404;SDS011;11875;49.356;2.718;2024-03-25T02:35:36;14.93;;;9.87;;
23404;SDS011;11875;49.356;2.718;2024-03-25T02:38:04;16.87;;;9.17;;
23404;SDS011;11875;49.356;2.718;2024-03-25T02:40:30;16.67;;;9.37;;
23404;SDS011;11875;49.356;2.718;2024-03-25T02:42:56;18.73;;;8.90;;
23404;SDS011;11875;49.356;2.718;2024-03-25T02:45:22;17.83;;;8.90;;
23404;SDS011;11875;49.356;2.718;2024-03-25T02:47:48;20.37;;;11.07;;
23404;SDS011;11875;49.356;2.718;2024-03-25T02:50:14;24.93;;;13.10;;
23404;SDS011;11875;49.356;2.718;2024-03-25T02:52:39;19.17;;;10.30;;
23404;SDS011;11875;49.356;2.718;2024-03-25T02:55:05;19.53;;;10.00;;
23404;SDS011;11875;49.356;2.718;2024-03-25T02:57:31;17.00;;;8.03;;
23404;SDS011;11875;49.356;2.718;2024-03-25T02:59:56;15.80;;;8.53;;
23404;SDS011;11875;49.356;2.718;2024-03-25T03:02:22;25.27;;;11.17;;
23404;SDS011;11875;49.356;2.718;2024-03-25T03:04:47;27.90;;;13.77;;
23404;SDS011;11875;49.356;2.718;2024-03-25T03:07:13;18.23;;;9.90;;
23404;SDS011;11875;49.356;2.718;2024-03-25T03:09:39;15.33;;;8.37;;
23404;SDS011;11875;49.356;2.718;2024-03-25T03:12:04;24.73;;;11.43;;
23404;SDS011;11875;49.356;2.718;2024-03-25T03:14:30;15.77;;;8.83;;
23404;SDS011;11875;49.356;2.718;2024-03-25T03:16:56;19.30;;;8.97;;
23404;SDS011;11875;49.356;2.718;2024-03-25T03:19:26;16.87;;;8.40;;
23404;SDS011;11875;49.356;2.718;2024-03-25T03:21:52;11.77;;;7.43;;
23404;SDS011;11875;49.356;2.718;2024-03-25T03:24:18;14.80;;;6.73;;
23404;SDS011;11875;49.356;2.718;2024-03-25T03:26:44;13.10;;;6.40;;
23404;SDS011;11875;49.356;2.718;2024-03-25T03:29:10;11.10;;;6.73;;
23404;SDS011;11875;49.356;2.718;2024-03-25T03:31:35;13.10;;;7.43;;
23404;SDS011;11875;49.356;2.718;2024-03-25T03:34:01;15.97;;;8.63;;
23404;SDS011;11875;49.356;2.718;2024-03-25T03:36:27;17.87;;;8.10;;
23404;SDS011;11875;49.356;2.718;2024-03-25T03:38:53;16.77;;;7.63;;
23404;SDS011;11875;49.356;2.718;2024-03-25T03:41:19;15.57;;;7.20;;
23404;SDS011;11875;49.356;2.718;2024-03-25T03:43:45;10.27;;;5.53;;
23404;SDS011;11875;49.356;2.718;2024-03-25T03:46:10;14.60;;;5.10;;
23404;SDS011;11875;49.356;2.718;2024-03-25T03:48:36;9.13;;;5.37;;
23404;SDS011;11875;49.356;2.718;2024-03-25T03:51:03;14.17;;;6.33;;
23404;SDS011;11875;49.356;2.718;2024-03-25T03:53:29;13.80;;;6.30;;
23404;SDS011;11875;49.356;2.718;2024-03-25T03:55:55;12.33;;;5.53;;
23404;SDS011;11875;49.356;2.718;2024-03-25T03:58:25;11.70;;;5.23;;
23404;SDS011;11875;49.356;2.718;2024-03-25T04:00:51;12.20;;;5.43;;
23404;SDS011;11875;49.356;2.718;2024-03-25T04:03:17;13.50;;;5.17;;
23404;SDS011;11875;49.356;2.718;2024-03-25T04:05:44;10.60;;;5.33;;
23404;SDS011;11875;49.356;2.718;2024-03-25T04:08:10;15.20;;;5.33;;
23404;SDS011;11875;49.356;2.718;2024-03-25T04:10:35;10.17;;;5.00;;
23404;SDS011;11875;49.356;2.718;2024-03-25T04:13:01;8.87;;;5.67;;
23404;SDS011;11875;49.356;2.718;2024-03-25T04:15:27;14.07;;;6.70;;
23404;SDS011;11875;49.356;2.718;2024-03-25T04:17:53;14.23;;;6.97;;
23404;SDS011;11875;49.356;2.718;2024-03-25T04:20:19;14.87;;;6.93;;
23404;SDS011;11875;49.356;2.718;2024-03-25T04:22:45;15.90;;;7.80;;
23404;SDS011;11875;49.356;2.718;2024-03-25T04:25:12;13.80;;;6.60;;
23404;SDS011;11875;49.356;2.718;2024-03-25T04:27:41;20.83;;;7.50;;
23404;SDS011;11875;49.356;2.718;2024-03-25T04:30:07;13.20;;;7.47;;
23404;SDS011;11875;49.356;2.718;2024-03-25T04:32:34;11.27;;;7.07;;
23404;SDS011;11875;49.356;2.718;2024-03-25T04:35:00;14.57;;;7.67;;
23404;SDS011;11875;49.356;2.718;2024-03-25T04:37:26;15.33;;;6.93;;
23404;SDS011;11875;49.356;2.718;2024-03-25T04:39:55;12.83;;;6.20;;
23404;SDS011;11875;49.356;2.718;2024-03-25T04:42:21;12.13;;;6.87;;
23404;SDS011;11875;49.356;2.718;2024-03-25T04:44:47;16.87;;;6.30;;
23404;SDS011;11875;49.356;2.718;2024-03-25T04:47:13;13.23;;;6.30;;
23404;SDS011;11875;49.356;2.718;2024-03-25T04:49:42;16.13;;;6.60;;
23404;SDS011;11875;49.356;2.718;2024-03-25T04:52:08;15.60;;;7.10;;
23404;SDS011;11875;49.356;2.718;2024-03-25T04:54:34;15.03;;;6.73;;
23404;SDS011;11875;49.356;2.718;2024-03-25T04:56:59;15.03;;;6.00;;
23404;SDS011;11875;49.356;2.718;2024-03-25T04:59:25;9.17;;;4.87;;
23404;SDS011;11875;49.356;2.718;2024-03-25T05:01:50;11.30;;;5.97;;
23404;SDS011;11875;49.356;2.718;2024-03-25T05:04:17;12.33;;;5.80;;
23404;SDS011;11875;49.356;2.718;2024-03-25T05:06:43;14.13;;;6.27;;
23404;SDS011;11875;49.356;2.718;2024-03-25T05:09:09;13.00;;;6.67;;
23404;SDS011;11875;49.356;2.718;2024-03-25T05:11:35;12.10;;;6.03;;
23404;SDS011;11875;49.356;2.718;2024-03-25T05:14:00;15.87;;;6.53;;
23404;SDS011;11875;49.356;2.718;2024-03-25T05:16:26;18.57;;;7.50;;
23404;SDS011;11875;49.356;2.718;2024-03-25T05:18:52;13.87;;;7.10;;
23404;SDS011;11875;49.356;2.718;2024-03-25T05:21:17;14.53;;;7.83;;
23404;SDS011;11875;49.356;2.718;2024-03-25T05:23:43;16.33;;;7.43;;
23404;SDS011;11875;49.356;2.718;2024-03-25T05:26:08;12.77;;;6.47;;
23404;SDS011;11875;49.356;2.718;2024-03-25T05:28:34;17.23;;;7.63;;
23404;SDS011;11875;49.356;2.718;2024-03-25T05:31:06;18.00;;;7.87;;
23404;SDS011;11875;49.356;2.718;2024-03-25T05:33:32;20.77;;;8.40;;
23404;SDS011;11875;49.356;2.718;2024-03-25T05:35:58;13.50;;;7.00;;
23404;SDS011;11875;49.356;2.718;2024-03-25T05:38:24;12.83;;;6.60;;
23404;SDS011;11875;49.356;2.718;2024-03-25T05:40:50;15.20;;;7.57;;
23404;SDS011;11875;49.356;2.718;2024-03-25T05:43:15;14.47;;;7.10;;
23404;SDS011;11875;49.356;2.718;2024-03-25T05:45:49;14.83;;;7.50;;
23404;SDS011;11875;49.356;2.718;2024-03-25T05:48:15;19.97;;;7.97;;
23404;SDS011;11875;49.356;2.718;2024-03-25T05:50:41;17.27;;;7.63;;
23404;SDS011;11875;49.356;2.718;2024-03-25T05:53:07;28.77;;;7.33;;
23404;SDS011;11875;49.356;2.718;2024-03-25T05:55:33;13.07;;;7.10;;
23404;SDS011;11875;49.356;2.718;2024-03-25T05:57:58;12.17;;;7.23;;
23404;SDS011;11875;49.356;2.718;2024-03-25T06:00:24;14.03;;;7.77;;
23404;SDS011;11875;49.356;2.718;2024-03-25T06:02:51;22.83;;;9.57;;
23404;SDS011;11875;49.356;2.718;2024-03-25T06:05:18;29.77;;;13.10;;
23404;SDS011;11875;49.356;2.718;2024-03-25T06:07:44;21.07;;;10.50;;
23404;SDS011;11875;49.356;2.718;2024-03-25T06:10:10;27.23;;;11.40;;
23404;SDS011;11875;49.356;2.718;2024-03-25T06:12:35;28.83;;;10.07;;
23404;SDS011;11875;49.356;2.718;2024-03-25T06:15:01;20.60;;;9.77;;
23404;SDS011;11875;49.356;2.718;2024-03-25T06:17:27;27.23;;;13.70;;
23404;SDS011;11875;49.356;2.718;2024-03-25T06:19:52;24.30;;;10.73;;
23404;SDS011;11875;49.356;2.718;2024-03-25T06:22:18;21.47;;;10.17;;
23404;SDS011;11875;49.356;2.718;2024-03-25T06:24:43;21.53;;;10.07;;
23404;SDS011;11875;49.356;2.718;2024-03-25T06:27:09;20.07;;;10.87;;
23404;SDS011;11875;49.356;2.718;2024-03-25T06:29:35;19.43;;;9.33;;
23404;SDS011;11875;49.356;2.718;2024-03-25T06:32:01;24.20;;;8.43;;
23404;SDS011;11875;49.356;2.718;2024-03-25T06:34:45;22.00;;;9.30;;
23404;SDS011;11875;49.356;2.718;2024-03-25T06:37:10;21.23;;;9.53;;
23404;SDS011;11875;49.356;2.718;2024-03-25T06:39:36;25.60;;;10.23;;
23404;SDS011;11875;49.356;2.718;2024-03-25T06:42:02;18.17;;;9.27;;
23404;SDS011;11875;49.356;2.718;2024-03-25T06:44:28;20.40;;;9.23;;
23404;SDS011;11875;49.356;2.718;2024-03-25T06:46:53;16.03;;;9.37;;
23404;SDS011;11875;49.356;2.718;2024-03-25T06:49:21;20.40;;;11.10;;
23404;SDS011;11875;49.356;2.718;2024-03-25T06:51:46;17.93;;;10.93;;
23404;SDS011;11875;49.356;2.718;2024-03-25T06:54:12;23.33;;;10.20;;
23404;SDS011;11875;49.356;2.718;2024-03-25T06:56:38;33.07;;;13.83;;
23404;SDS011;11875;49.356;2.718;2024-03-25T06:59:03;32.23;;;14.50;;
23404;SDS011;11875;49.356;2.718;2024-03-25T07:01:29;19.53;;;11.20;;
23404;SDS011;11875;49.356;2.718;2024-03-25T07:03:54;22.90;;;10.03;;
23404;SDS011;11875;49.356;2.718;2024-03-25T07:06:20;27.63;;;10.60;;
23404;SDS011;11875;49.356;2.718;2024-03-25T07:08:45;23.87;;;10.47;;
23404;SDS011;11875;49.356;2.718;2024-03-25T07:11:12;24.87;;;10.27;;
23404;SDS011;11875;49.356;2.718;2024-03-25T07:13:38;23.63;;;11.10;;
23404;SDS011;11875;49.356;2.718;2024-03-25T07:16:04;17.60;;;9.80;;
23404;SDS011;11875;49.356;2.718;2024-03-25T07:18:30;16.77;;;8.67;;
23404;SDS011;11875;49.356;2.718;2024-03-25T07:20:55;27.50;;;13.30;;
23404;SDS011;11875;49.356;2.718;2024-03-25T07:23:21;20.03;;;9.60;;
23404;SDS011;11875;49.356;2.718;2024-03-25T07:25:46;28.17;;;9.87;;
23404;SDS011;11875;49.356;2.718;2024-03-25T07:28:12;16.70;;;8.03;;
23404;SDS011;11875;49.356;2.718;2024-03-25T07:30:38;17.10;;;8.63;;
23404;SDS011;11875;49.356;2.718;2024-03-25T07:33:03;12.53;;;7.63;;
23404;SDS011;11875;49.356;2.718;2024-03-25T07:35:30;16.87;;;6.23;;
23404;SDS011;11875;49.356;2.718;2024-03-25T07:37:55;16.47;;;7.10;;
23404;SDS011;11875;49.356;2.718;2024-03-25T07:40:21;11.13;;;5.57;;
23404;SDS011;11875;49.356;2.718;2024-03-25T07:42:47;9.67;;;5.27;;
23404;SDS011;11875;49.356;2.718;2024-03-25T07:45:14;9.87;;;4.47;;
23404;SDS011;11875;49.356;2.718;2024-03-25T07:47:40;13.37;;;4.63;;
23404;SDS011;11875;49.356;2.718;2024-03-25T07:50:05;8.40;;;4.83;;
23404;SDS011;11875;49.356;2.718;2024-03-25T07:52:32;8.00;;;4.70;;
23404;SDS011;11875;49.356;2.718;2024-03-25T07:54:57;10.03;;;4.60;;
23404;SDS011;11875;49.356;2.718;2024-03-25T07:57:23;8.00;;;4.73;;
23404;SDS011;11875;49.356;2.718;2024-03-25T07:59:49;12.77;;;5.10;;
23404;SDS011;11875;49.356;2.718;2024-03-25T08:02:14;8.17;;;4.50;;
23404;SDS011;11875;49.356;2.718;2024-03-25T08:04:40;11.70;;;5.00;;
23404;SDS011;11875;49.356;2.718;2024-03-25T08:07:06;10.73;;;4.68;;
23404;SDS011;11875;49.356;2.718;2024-03-25T08:09:32;8.60;;;4.30;;
23404;SDS011;11875;49.356;2.718;2024-03-25T08:11:58;8.40;;;4.05;;
23404;SDS011;11875;49.356;2.718;2024-03-25T08:14:23;6.07;;;3.85;;
23404;SDS011;11875;49.356;2.718;2024-03-25T08:16:49;7.70;;;4.03;;
23404;SDS011;11875;49.356;2.718;2024-03-25T08:19:15;8.75;;;4.00;;
23404;SDS011;11875;49.356;2.718;2024-03-25T08:21:40;9.15;;;3.80;;
23404;SDS011;11875;49.356;2.718;2024-03-25T08:24:06;10.73;;;4.05;;
23404;SDS011;11875;49.356;2.718;2024-03-25T08:26:32;9.43;;;4.47;;
23404;SDS011;11875;49.356;2.718;2024-03-25T08:28:58;8.13;;;3.38;;
23404;SDS011;11875;49.356;2.718;2024-03-25T08:31:23;9.07;;;3.38;;
23404;SDS011;11875;49.356;2.718;2024-03-25T08:33:49;9.80;;;3.58;;
23404;SDS011;11875;49.356;2.718;2024-03-25T08:36:15;7.55;;;4.10;;
23404;SDS011;11875;49.356;2.718;2024-03-25T08:38:41;5.82;;;3.45;;
23404;SDS011;11875;49.356;2.718;2024-03-25T08:41:07;8.10;;;3.15;;
23404;SDS011;11875;49.356;2.718;2024-03-25T08:43:32;5.57;;;3.30;;
23404;SDS011;11875;49.356;2.718;2024-03-25T08:45:58;5.20;;;2.92;;
23404;SDS011;11875;49.356;2.718;2024-03-25T08:48:23;5.95;;;2.83;;
23404;SDS011;11875;49.356;2.718;2024-03-25T08:50:49;6.78;;;2.80;;
23404;SDS011;11875;49.356;2.718;2024-03-25T08:53:15;6.30;;;3.05;;
23404;SDS011;11875;49.356;2.718;2024-03-25T08:55:46;9.70;;;2.80;;
23404;SDS011;11875;49.356;2.718;2024-03-25T08:58:15;8.40;;;2.35;;
23404;SDS011;11875;49.356;2.718;2024-03-25T09:00:44;5.63;;;3.00;;
23404;SDS011;11875;49.356;2.718;2024-03-25T09:03:10;6.45;;;2.60;;
23404;SDS011;11875;49.356;2.718;2024-03-25T09:05:38;8.50;;;3.00;;
23404;SDS011;11875;49.356;2.718;2024-03-25T09:08:04;7.07;;;2.67;;
23404;SDS011;11875;49.356;2.718;2024-03-25T09:10:31;7.03;;;2.90;;
23404;SDS011;11875;49.356;2.718;2024-03-25T09:13:15;6.35;;;2.65;;
23404;SDS011;11875;49.356;2.718;2024-03-25T09:15:40;5.97;;;2.63;;
23404;SDS011;11875;49.356;2.718;2024-03-25T09:18:06;8.20;;;2.70;;
23404;SDS011;11875;49.356;2.718;2024-03-25T09:20:32;6.38;;;2.70;;
23404;SDS011;11875;49.356;2.718;2024-03-25T09:22:58;7.93;;;2.85;;
23404;SDS011;11875;49.356;2.718;2024-03-25T09:25:23;7.78;;;2.72;;
23404;SDS011;11875;49.356;2.718;2024-03-25T09:27:51;7.43;;;2.30;;
23404;SDS011;11875;49.356;2.718;2024-03-25T09:30:17;8.32;;;3.00;;
23404;SDS011;11875;49.356;2.718;2024-03-25T09:32:45;7.90;;;2.63;;
23404;SDS011;11875;49.356;2.718;2024-03-25T09:35:11;6.60;;;2.53;;
23404;SDS011;11875;49.356;2.718;2024-03-25T09:37:37;5.05;;;2.45;;
23404;SDS011;11875;49.356;2.718;2024-03-25T09:40:03;8.43;;;3.05;;
23404;SDS011;11875;49.356;2.718;2024-03-25T09:42:42;7.18;;;2.42;;
23404;SDS011;11875;49.356;2.718;2024-03-25T09:45:13;5.03;;;2.00;;
23404;SDS011;11875;49.356;2.718;2024-03-25T09:47:42;7.30;;;2.47;;
23404;SDS011;11875;49.356;2.718;2024-03-25T09:50:11;8.32;;;2.30;;
23404;SDS011;11875;49.356;2.718;2024-03-25T09:52:50;3.55;;;1.77;;
23404;SDS011;11875;49.356;2.718;2024-03-25T09:55:16;4.65;;;2.10;;
23404;SDS011;11875;49.356;2.718;2024-03-25T09:57:43;7.05;;;2.40;;
23404;SDS011;11875;49.356;2.718;2024-03-25T10:00:09;6.10;;;1.92;;
23404;SDS011;11875;49.356;2.718;2024-03-25T10:02:36;5.78;;;1.90;;
23404;SDS011;11875;49.356;2.718;2024-03-25T10:05:03;7.60;;;2.33;;
23404;SDS011;11875;49.356;2.718;2024-03-25T10:07:33;4.68;;;1.85;;
23404;SDS011;11875;49.356;2.718;2024-03-25T10:09:59;2.72;;;1.83;;
23404;SDS011;11875;49.356;2.718;2024-03-25T10:12:30;8.60;;;1.92;;
23404;SDS011;11875;49.356;2.718;2024-03-25T10:14:56;4.32;;;1.95;;
23404;SDS011;11875;49.356;2.718;2024-03-25T10:17:22;6.97;;;2.13;;
23404;SDS011;11875;49.356;2.718;2024-03-25T10:19:48;6.03;;;2.20;;
23404;SDS011;11875;49.356;2.718;2024-03-25T10:22:13;4.45;;;2.33;;
23404;SDS011;11875;49.356;2.718;2024-03-25T10:24:39;7.00;;;2.25;;
23404;SDS011;11875;49.356;2.718;2024-03-25T10:27:19;4.80;;;2.38;;
23404;SDS011;11875;49.356;2.718;2024-03-25T10:29:51;6.53;;;2.13;;
23404;SDS011;11875;49.356;2.718;2024-03-25T10:32:18;3.42;;;2.00;;
23404;SDS011;11875;49.356;2.718;2024-03-25T10:34:43;5.47;;;2.25;;
23404;SDS011;11875;49.356;2.718;2024-03-25T10:37:09;4.80;;;2.03;;
23404;SDS011;11875;49.356;2.718;2024-03-25T10:39:39;4.53;;;2.03;;
23404;SDS011;11875;49.356;2.718;2024-03-25T10:42:13;5.80;;;2.70;;
23404;SDS011;11875;49.356;2.718;2024-03-25T10:44:41;5.97;;;2.33;;
23404;SDS011;11875;49.356;2.718;2024-03-25T10:47:07;6.57;;;2.03;;
23404;SDS011;11875;49.356;2.718;2024-03-25T10:49:50;5.90;;;2.03;;
23404;SDS011;11875;49.356;2.718;2024-03-25T10:52:21;7.43;;;2.45;;
23404;SDS011;11875;49.356;2.718;2024-03-25T10:54:49;5.18;;;2.20;;
23404;SDS011;11875;49.356;2.718;2024-03-25T10:57:16;7.18;;;2.00;;
23404;SDS011;11875;49.356;2.718;2024-03-25T10:59:45;3.22;;;1.80;;
23404;SDS011;11875;49.356;2.718;2024-03-25T11:02:11;5.88;;;1.92;;
23404;SDS011;11875;49.356;2.718;2024-03-25T11:04:38;5.50;;;2.10;;
23404;SDS011;11875;49.356;2.718;2024-03-25T11:07:15;11.05;;;2.10;;
23404;SDS011;11875;49.356;2.718;2024-03-25T11:09:41;3.28;;;1.70;;
23404;SDS011;11875;49.356;2.718;2024-03-25T11:12:11;6.40;;;2.00;;
23404;SDS011;11875;49.356;2.718;2024-03-25T11:14:37;12.43;;;3.72;;
23404;SDS011;11875;49.356;2.718;2024-03-25T11:17:13;11.75;;;2.60;;
23404;SDS011;11875;49.356;2.718;2024-03-25T11:19:42;5.97;;;1.90;;
23404;SDS011;11875;49.356;2.718;2024-03-25T11:22:08;5.43;;;1.85;;
23404;SDS011;11875;49.356;2.718;2024-03-25T11:24:35;4.80;;;2.28;;
23404;SDS011;11875;49.356;2.718;2024-03-25T11:27:02;4.22;;;1.85;;
23404;SDS011;11875;49.356;2.718;2024-03-25T11:29:31;6.07;;;2.25;;
23404;SDS011;11875;49.356;2.718;2024-03-25T11:31:56;4.75;;;2.05;;
23404;SDS011;11875;49.356;2.718;2024-03-25T11:34:25;5.28;;;1.70;;
23404;SDS011;11875;49.356;2.718;2024-03-25T11:36:50;3.45;;;1.85;;
23404;SDS011;11875;49.356;2.718;2024-03-25T11:39:21;4.35;;;1.77;;
23404;SDS011;11875;49.356;2.718;2024-03-25T11:41:47;3.75;;;1.58;;
23404;SDS011;11875;49.356;2.718;2024-03-25T11:44:12;6.90;;;1.75;;
23404;SDS011;11875;49.356;2.718;2024-03-25T11:46:39;6.15;;;1.92;;
23404;SDS011;11875;49.356;2.718;2024-03-25T11:49:11;6.75;;;1.77;;
23404;SDS011;11875;49.356;2.718;2024-03-25T11:51:39;2.72;;;1.65;;
23404;SDS011;11875;49.356;2.718;2024-03-25T11:54:12;5.18;;;1.67;;
23404;SDS011;11875;49.356;2.718;2024-03-25T11:56:38;7.10;;;1.80;;
23404;SDS011;11875;49.356;2.718;2024-03-25T11:59:04;4.03;;;1.70;;
23404;SDS011;11875;49.356;2.718;2024-03-25T12:01:30;4.90;;;1.70;;
23404;SDS011;11875;49.356;2.718;2024-03-25T12:03:56;7.10;;;1.67;;
23404;SDS011;11875;49.356;2.718;2024-03-25T12:06:22;5.60;;;1.77;;
23404;SDS011;11875;49.356;2.718;2024-03-25T12:08:47;4.22;;;1.70;;
23404;SDS011;11875;49.356;2.718;2024-03-25T12:11:31;2.97;;;1.20;;
23404;SDS011;11875;49.356;2.718;2024-03-25T12:13:58;2.30;;;1.42;;
23404;SDS011;11875;49.356;2.718;2024-03-25T12:16:24;4.47;;;1.50;;
23404;SDS011;11875;49.356;2.718;2024-03-25T12:18:50;2.58;;;1.40;;
23404;SDS011;11875;49.356;2.718;2024-03-25T12:21:17;5.50;;;1.63;;
23404;SDS011;11875;49.356;2.718;2024-03-25T12:23:43;5.65;;;1.67;;
23404;SDS011;11875;49.356;2.718;2024-03-25T12:26:08;5.10;;;1.73;;
23404;SDS011;11875;49.356;2.718;2024-03-25T12:28:34;2.42;;;1.20;;
23404;SDS011;11875;49.356;2.718;2024-03-25T12:31:02;3.40;;;1.65;;
23404;SDS011;11875;49.356;2.718;2024-03-25T12:33:27;3.53;;;1.58;;
23404;SDS011;11875;49.356;2.718;2024-03-25T12:35:53;1.95;;;1.17;;
23404;SDS011;11875;49.356;2.718;2024-03-25T12:40:47;6.13;;;1.45;;
23404;SDS011;11875;49.356;2.718;2024-03-25T12:43:14;2.88;;;1.60;;
23404;SDS011;11875;49.356;2.718;2024-03-25T12:45:43;2.33;;;1.27;;
23404;SDS011;11875;49.356;2.718;2024-03-25T12:48:09;4.72;;;1.50;;
23404;SDS011;11875;49.356;2.718;2024-03-25T12:50:35;6.97;;;1.50;;
23404;SDS011;11875;49.356;2.718;2024-03-25T12:53:01;4.53;;;1.50;;
23404;SDS011;11875;49.356;2.718;2024-03-25T12:55:28;2.85;;;1.58;;
23404;SDS011;11875;49.356;2.718;2024-03-25T12:57:54;3.50;;;1.60;;
23404;SDS011;11875;49.356;2.718;2024-03-25T13:00:20;3.13;;;1.20;;
23404;SDS011;11875;49.356;2.718;2024-03-25T13:02:45;3.80;;;1.33;;
23404;SDS011;11875;49.356;2.718;2024-03-25T13:05:11;5.55;;;1.33;;
23404;SDS011;11875;49.356;2.718;2024-03-25T13:07:36;6.30;;;1.60;;
23404;SDS011;11875;49.356;2.718;2024-03-25T13:10:02;3.85;;;1.52;;
23404;SDS011;11875;49.356;2.718;2024-03-25T13:12:30;1.92;;;1.35;;
23404;SDS011;11875;49.356;2.718;2024-03-25T13:14:55;3.65;;;1.52;;
23404;SDS011;11875;49.356;2.718;2024-03-25T13:17:22;4.80;;;1.50;;
23404;SDS011;11875;49.356;2.718;2024-03-25T13:19:47;3.65;;;1.40;;
23404;SDS011;11875;49.356;2.718;2024-03-25T13:22:13;8.73;;;2.33;;
23404;SDS011;11875;49.356;2.718;2024-03-25T13:24:39;5.72;;;1.80;;
23404;SDS011;11875;49.356;2.718;2024-03-25T13:27:04;3.60;;;2.00;;
23404;SDS011;11875;49.356;2.718;2024-03-25T13:29:30;2.40;;;1.45;;
23404;SDS011;11875;49.356;2.718;2024-03-25T13:31:56;5.07;;;1.60;;
23404;SDS011;11875;49.356;2.718;2024-03-25T13:34:21;4.72;;;1.67;;
23404;SDS011;11875;49.356;2.718;2024-03-25T13:36:47;4.07;;;1.58;;
23404;SDS011;11875;49.356;2.718;2024-03-25T13:39:12;3.70;;;1.70;;
23404;SDS011;11875;49.356;2.718;2024-03-25T13:41:38;3.25;;;1.33;;
23404;SDS011;11875;49.356;2.718;2024-03-25T13:44:04;6.25;;;1.65;;
23404;SDS011;11875;49.356;2.718;2024-03-25T13:46:29;3.97;;;1.67;;
23404;SDS011;11875;49.356;2.718;2024-03-25T13:48:55;3.42;;;1.30;;
23404;SDS011;11875;49.356;2.718;2024-03-25T13:51:21;5.30;;;1.52;;
23404;SDS011;11875;49.356;2.718;2024-03-25T13:53:46;2.47;;;1.25;;
23404;SDS011;11875;49.356;2.718;2024-03-25T13:56:13;5.47;;;1.40;;
23404;SDS011;11875;49.356;2.718;2024-03-25T13:58:38;3.35;;;1.42;;
23404;SDS011;11875;49.356;2.718;2024-03-25T14:01:04;1.77;;;1.13;;
23404;SDS011;11875;49.356;2.718;2024-03-25T14:03:30;6.00;;;1.17;;
23404;SDS011;11875;49.356;2.718;2024-03-25T14:05:56;2.85;;;1.25;;
23404;SDS011;11875;49.356;2.718;2024-03-25T14:08:22;1.95;;;1.35;;
23404;SDS011;11875;49.356;2.718;2024-03-25T14:10:56;1.95;;;1.23;;
23404;SDS011;11875;49.356;2.718;2024-03-25T14:13:23;2.58;;;1.23;;
23404;SDS011;11875;49.356;2.718;2024-03-25T14:15:49;2.28;;;1.20;;
23404;SDS011;11875;49.356;2.718;2024-03-25T14:18:15;3.08;;;1.40;;
23404;SDS011;11875;49.356;2.718;2024-03-25T14:20:41;3.08;;;1.42;;
23404;SDS011;11875;49.356;2.718;2024-03-25T14:23:07;3.25;;;1.30;;
23404;SDS011;11875;49.356;2.718;2024-03-25T14:25:33;4.22;;;1.30;;
23404;SDS011;11875;49.356;2.718;2024-03-25T14:27:58;2.05;;;1.00;;
23404;SDS011;11875;49.356;2.718;2024-03-25T14:30:24;3.22;;;1.20;;
23404;SDS011;11875;49.356;2.718;2024-03-25T14:32:49;9.20;;;2.55;;
23404;SDS011;11875;49.356;2.718;2024-03-25T14:35:15;4.93;;;1.27;;
23404;SDS011;11875;49.356;2.718;2024-03-25T14:37:40;7.53;;;1.48;;